Terminal Aerodrome Forecast
Issued by NWS

Home | Current Version | Previous Version | Text Only | Print | Product List | Glossary On
Versions: 1 2 3 4 5 6 7 8 9 10 11 12 13
661
FTUS44 KJAN 262144 AAA
TAFHKS
TAF AMD
KHKS 262144Z 2622/2718 20004KT P6SM -RA FEW050 OVC090
     FM270000 14006KT P6SM FEW060 BKN100
     FM270500 13004KT P6SM BKN015
     FM270800 14004KT P6SM OVC008
     FM271400 20007KT P6SM VCSH BKN017=

USA.gov is the U.S. government's official web portal to all federal, state and local government web resources and services.